sensor_id;sensor_type;location;lat;lon;timestamp;P1;durP1;ratioP1;P2;durP2;ratioP2
56269;SDS011;42176;43.240;27.880;2024-02-16T00:01:03;17.75;;;8.50;;
56269;SDS011;42176;43.240;27.880;2024-02-16T00:03:04;16.45;;;7.88;;
56269;SDS011;42176;43.240;27.880;2024-02-16T00:05:06;18.23;;;8.87;;
56269;SDS011;42176;43.240;27.880;2024-02-16T00:07:07;16.63;;;6.63;;
56269;SDS011;42176;43.240;27.880;2024-02-16T00:09:08;18.15;;;8.38;;
56269;SDS011;42176;43.240;27.880;2024-02-16T00:11:10;9.73;;;5.13;;
56269;SDS011;42176;43.240;27.880;2024-02-16T00:13:10;20.02;;;9.65;;
56269;SDS011;42176;43.240;27.880;2024-02-16T00:15:11;21.17;;;9.45;;
56269;SDS011;42176;43.240;27.880;2024-02-16T00:17:12;20.40;;;10.05;;
56269;SDS011;42176;43.240;27.880;2024-02-16T00:19:13;18.10;;;7.97;;
56269;SDS011;42176;43.240;27.880;2024-02-16T00:21:13;13.15;;;4.97;;
56269;SDS011;42176;43.240;27.880;2024-02-16T00:23:14;10.52;;;5.18;;
56269;SDS011;42176;43.240;27.880;2024-02-16T00:25:15;16.43;;;8.00;;
56269;SDS011;42176;43.240;27.880;2024-02-16T00:27:15;15.10;;;5.65;;
56269;SDS011;42176;43.240;27.880;2024-02-16T00:29:16;22.55;;;10.68;;
56269;SDS011;42176;43.240;27.880;2024-02-16T00:31:16;19.73;;;10.05;;
56269;SDS011;42176;43.240;27.880;2024-02-16T00:33:17;13.33;;;6.93;;
56269;SDS011;42176;43.240;27.880;2024-02-16T00:35:18;14.90;;;7.13;;
56269;SDS011;42176;43.240;27.880;2024-02-16T00:37:19;15.45;;;7.57;;
56269;SDS011;42176;43.240;27.880;2024-02-16T00:39:20;16.60;;;8.82;;
56269;SDS011;42176;43.240;27.880;2024-02-16T00:41:22;24.50;;;8.75;;
56269;SDS011;42176;43.240;27.880;2024-02-16T00:43:23;22.30;;;10.10;;
56269;SDS011;42176;43.240;27.880;2024-02-16T00:45:23;19.23;;;9.67;;
56269;SDS011;42176;43.240;27.880;2024-02-16T00:47:24;17.92;;;8.68;;
56269;SDS011;42176;43.240;27.880;2024-02-16T00:49:25;13.85;;;7.40;;
56269;SDS011;42176;43.240;27.880;2024-02-16T00:51:26;15.00;;;6.55;;
56269;SDS011;42176;43.240;27.880;2024-02-16T00:53:27;18.80;;;7.93;;
56269;SDS011;42176;43.240;27.880;2024-02-16T00:55:27;25.85;;;11.10;;
56269;SDS011;42176;43.240;27.880;2024-02-16T00:57:28;19.70;;;10.73;;
56269;SDS011;42176;43.240;27.880;2024-02-16T00:59:29;14.93;;;6.70;;
56269;SDS011;42176;43.240;27.880;2024-02-16T01:01:29;2.22;;;1.98;;
56269;SDS011;42176;43.240;27.880;2024-02-16T01:03:30;9.82;;;5.28;;
56269;SDS011;42176;43.240;27.880;2024-02-16T01:05:30;10.75;;;5.90;;
56269;SDS011;42176;43.240;27.880;2024-02-16T01:07:31;12.37;;;6.50;;
56269;SDS011;42176;43.240;27.880;2024-02-16T01:09:32;15.13;;;6.83;;
56269;SDS011;42176;43.240;27.880;2024-02-16T01:11:33;20.40;;;8.07;;
56269;SDS011;42176;43.240;27.880;2024-02-16T01:13:34;9.97;;;5.27;;
56269;SDS011;42176;43.240;27.880;2024-02-16T01:15:34;24.37;;;11.50;;
56269;SDS011;42176;43.240;27.880;2024-02-16T01:17:37;22.83;;;10.60;;
56269;SDS011;42176;43.240;27.880;2024-02-16T01:19:39;5.50;;;3.53;;
56269;SDS011;42176;43.240;27.880;2024-02-16T01:21:40;17.85;;;7.70;;
56269;SDS011;42176;43.240;27.880;2024-02-16T01:23:41;16.80;;;8.55;;
56269;SDS011;42176;43.240;27.880;2024-02-16T01:25:41;19.23;;;7.90;;
56269;SDS011;42176;43.240;27.880;2024-02-16T01:27:42;22.27;;;9.67;;
56269;SDS011;42176;43.240;27.880;2024-02-16T01:29:43;22.83;;;10.70;;
56269;SDS011;42176;43.240;27.880;2024-02-16T01:31:43;22.83;;;10.48;;
56269;SDS011;42176;43.240;27.880;2024-02-16T01:33:44;21.33;;;7.28;;
56269;SDS011;42176;43.240;27.880;2024-02-16T01:35:44;18.67;;;8.90;;
56269;SDS011;42176;43.240;27.880;2024-02-16T01:37:46;23.15;;;10.90;;
56269;SDS011;42176;43.240;27.880;2024-02-16T01:39:47;25.07;;;11.87;;
56269;SDS011;42176;43.240;27.880;2024-02-16T01:41:47;25.42;;;11.45;;
56269;SDS011;42176;43.240;27.880;2024-02-16T01:43:48;18.25;;;7.45;;
56269;SDS011;42176;43.240;27.880;2024-02-16T01:45:48;23.88;;;9.45;;
56269;SDS011;42176;43.240;27.880;2024-02-16T01:47:50;25.40;;;9.57;;
56269;SDS011;42176;43.240;27.880;2024-02-16T01:49:51;24.73;;;11.07;;
56269;SDS011;42176;43.240;27.880;2024-02-16T01:51:52;23.10;;;11.10;;
56269;SDS011;42176;43.240;27.880;2024-02-16T01:53:53;33.63;;;11.15;;
56269;SDS011;42176;43.240;27.880;2024-02-16T01:55:55;22.58;;;9.13;;
56269;SDS011;42176;43.240;27.880;2024-02-16T01:57:56;17.88;;;7.97;;
56269;SDS011;42176;43.240;27.880;2024-02-16T01:59:58;23.20;;;8.63;;
56269;SDS011;42176;43.240;27.880;2024-02-16T02:01:59;30.63;;;9.35;;
56269;SDS011;42176;43.240;27.880;2024-02-16T02:04:00;22.10;;;10.40;;
56269;SDS011;42176;43.240;27.880;2024-02-16T02:06:01;24.73;;;11.00;;
56269;SDS011;42176;43.240;27.880;2024-02-16T02:08:11;26.13;;;11.53;;
56269;SDS011;42176;43.240;27.880;2024-02-16T02:10:12;16.30;;;6.55;;
56269;SDS011;42176;43.240;27.880;2024-02-16T02:12:13;9.38;;;4.78;;
56269;SDS011;42176;43.240;27.880;2024-02-16T02:14:13;18.90;;;7.45;;
56269;SDS011;42176;43.240;27.880;2024-02-16T02:16:14;20.30;;;9.70;;
56269;SDS011;42176;43.240;27.880;2024-02-16T02:18:16;18.67;;;8.18;;
56269;SDS011;42176;43.240;27.880;2024-02-16T02:20:18;20.40;;;9.18;;
56269;SDS011;42176;43.240;27.880;2024-02-16T02:22:19;23.88;;;9.88;;
56269;SDS011;42176;43.240;27.880;2024-02-16T02:24:20;24.67;;;10.93;;
56269;SDS011;42176;43.240;27.880;2024-02-16T02:26:22;10.75;;;5.35;;
56269;SDS011;42176;43.240;27.880;2024-02-16T02:28:22;19.27;;;7.32;;
56269;SDS011;42176;43.240;27.880;2024-02-16T02:30:24;15.88;;;7.32;;
56269;SDS011;42176;43.240;27.880;2024-02-16T02:32:25;17.80;;;8.90;;
56269;SDS011;42176;43.240;27.880;2024-02-16T02:34:25;20.27;;;8.60;;
56269;SDS011;42176;43.240;27.880;2024-02-16T02:36:26;17.83;;;7.70;;
56269;SDS011;42176;43.240;27.880;2024-02-16T02:38:27;20.30;;;8.68;;
56269;SDS011;42176;43.240;27.880;2024-02-16T02:40:27;15.75;;;8.70;;
56269;SDS011;42176;43.240;27.880;2024-02-16T02:42:28;24.50;;;10.27;;
56269;SDS011;42176;43.240;27.880;2024-02-16T02:44:32;22.27;;;12.23;;
56269;SDS011;42176;43.240;27.880;2024-02-16T02:46:32;16.80;;;8.25;;
56269;SDS011;42176;43.240;27.880;2024-02-16T02:48:33;17.55;;;7.57;;
56269;SDS011;42176;43.240;27.880;2024-02-16T02:50:33;23.00;;;11.23;;
56269;SDS011;42176;43.240;27.880;2024-02-16T02:52:34;24.60;;;10.65;;
56269;SDS011;42176;43.240;27.880;2024-02-16T02:54:34;9.80;;;4.70;;
56269;SDS011;42176;43.240;27.880;2024-02-16T02:56:35;25.05;;;8.10;;
56269;SDS011;42176;43.240;27.880;2024-02-16T02:58:38;19.88;;;8.02;;
56269;SDS011;42176;43.240;27.880;2024-02-16T03:00:39;18.63;;;9.02;;
56269;SDS011;42176;43.240;27.880;2024-02-16T03:02:41;18.88;;;9.82;;
56269;SDS011;42176;43.240;27.880;2024-02-16T03:04:43;26.85;;;10.95;;
56269;SDS011;42176;43.240;27.880;2024-02-16T03:06:44;16.33;;;8.40;;
56269;SDS011;42176;43.240;27.880;2024-02-16T03:08:45;16.83;;;6.97;;
56269;SDS011;42176;43.240;27.880;2024-02-16T03:10:45;17.20;;;7.47;;
56269;SDS011;42176;43.240;27.880;2024-02-16T03:12:46;14.75;;;8.05;;
56269;SDS011;42176;43.240;27.880;2024-02-16T03:14:49;15.70;;;8.57;;
56269;SDS011;42176;43.240;27.880;2024-02-16T03:16:50;18.95;;;9.45;;
56269;SDS011;42176;43.240;27.880;2024-02-16T03:18:50;14.83;;;6.80;;
56269;SDS011;42176;43.240;27.880;2024-02-16T03:20:51;16.70;;;6.07;;
56269;SDS011;42176;43.240;27.880;2024-02-16T03:22:51;21.38;;;8.95;;
56269;SDS011;42176;43.240;27.880;2024-02-16T03:24:52;21.77;;;9.10;;
56269;SDS011;42176;43.240;27.880;2024-02-16T03:26:53;24.30;;;11.07;;
56269;SDS011;42176;43.240;27.880;2024-02-16T03:28:54;18.85;;;8.43;;
56269;SDS011;42176;43.240;27.880;2024-02-16T03:32:56;13.02;;;4.40;;
56269;SDS011;42176;43.240;27.880;2024-02-16T03:34:57;13.98;;;7.85;;
56269;SDS011;42176;43.240;27.880;2024-02-16T03:36:58;21.10;;;6.90;;
56269;SDS011;42176;43.240;27.880;2024-02-16T03:38:59;19.05;;;10.10;;
56269;SDS011;42176;43.240;27.880;2024-02-16T03:40:59;21.90;;;8.98;;
56269;SDS011;42176;43.240;27.880;2024-02-16T03:43:00;14.07;;;6.75;;
56269;SDS011;42176;43.240;27.880;2024-02-16T03:45:00;19.83;;;7.33;;
56269;SDS011;42176;43.240;27.880;2024-02-16T03:47:02;5.43;;;2.75;;
56269;SDS011;42176;43.240;27.880;2024-02-16T03:49:03;19.47;;;8.30;;
56269;SDS011;42176;43.240;27.880;2024-02-16T03:51:04;19.57;;;6.10;;
56269;SDS011;42176;43.240;27.880;2024-02-16T03:53:04;24.33;;;10.73;;
56269;SDS011;42176;43.240;27.880;2024-02-16T03:55:05;26.52;;;11.50;;
56269;SDS011;42176;43.240;27.880;2024-02-16T03:57:06;19.08;;;8.38;;
56269;SDS011;42176;43.240;27.880;2024-02-16T03:59:09;21.13;;;6.95;;
56269;SDS011;42176;43.240;27.880;2024-02-16T04:01:10;20.40;;;9.48;;
56269;SDS011;42176;43.240;27.880;2024-02-16T04:03:11;18.43;;;8.27;;
56269;SDS011;42176;43.240;27.880;2024-02-16T04:05:11;17.70;;;8.33;;
56269;SDS011;42176;43.240;27.880;2024-02-16T04:07:12;18.83;;;9.47;;
56269;SDS011;42176;43.240;27.880;2024-02-16T04:09:12;16.70;;;8.53;;
56269;SDS011;42176;43.240;27.880;2024-02-16T04:11:13;21.15;;;10.50;;
56269;SDS011;42176;43.240;27.880;2024-02-16T04:13:15;19.05;;;5.90;;
56269;SDS011;42176;43.240;27.880;2024-02-16T04:15:15;22.25;;;7.53;;
56269;SDS011;42176;43.240;27.880;2024-02-16T04:17:16;18.83;;;7.00;;
56269;SDS011;42176;43.240;27.880;2024-02-16T04:19:17;11.03;;;6.63;;
56269;SDS011;42176;43.240;27.880;2024-02-16T04:21:18;14.65;;;7.93;;
56269;SDS011;42176;43.240;27.880;2024-02-16T04:23:18;17.27;;;9.40;;
56269;SDS011;42176;43.240;27.880;2024-02-16T04:25:19;17.48;;;6.50;;
56269;SDS011;42176;43.240;27.880;2024-02-16T04:27:19;13.90;;;6.37;;
56269;SDS011;42176;43.240;27.880;2024-02-16T04:29:20;18.13;;;8.55;;
56269;SDS011;42176;43.240;27.880;2024-02-16T04:31:20;14.63;;;7.78;;
56269;SDS011;42176;43.240;27.880;2024-02-16T04:33:21;17.67;;;9.65;;
56269;SDS011;42176;43.240;27.880;2024-02-16T04:35:22;8.23;;;5.10;;
56269;SDS011;42176;43.240;27.880;2024-02-16T04:37:23;12.90;;;6.57;;
56269;SDS011;42176;43.240;27.880;2024-02-16T04:39:24;17.63;;;6.97;;
56269;SDS011;42176;43.240;27.880;2024-02-16T04:41:24;19.07;;;7.07;;
56269;SDS011;42176;43.240;27.880;2024-02-16T04:43:25;18.40;;;8.17;;
56269;SDS011;42176;43.240;27.880;2024-02-16T04:45:26;15.63;;;8.30;;
56269;SDS011;42176;43.240;27.880;2024-02-16T04:47:27;13.35;;;7.05;;
56269;SDS011;42176;43.240;27.880;2024-02-16T04:49:27;8.60;;;4.38;;
56269;SDS011;42176;43.240;27.880;2024-02-16T04:51:28;11.60;;;6.10;;
56269;SDS011;42176;43.240;27.880;2024-02-16T04:53:28;18.73;;;9.52;;
56269;SDS011;42176;43.240;27.880;2024-02-16T04:55:29;15.77;;;8.75;;
56269;SDS011;42176;43.240;27.880;2024-02-16T04:57:31;11.10;;;5.47;;
56269;SDS011;42176;43.240;27.880;2024-02-16T04:59:33;13.88;;;6.13;;
56269;SDS011;42176;43.240;27.880;2024-02-16T05:01:34;12.48;;;6.47;;
56269;SDS011;42176;43.240;27.880;2024-02-16T05:03:34;17.80;;;6.88;;
56269;SDS011;42176;43.240;27.880;2024-02-16T05:05:35;17.35;;;7.05;;
56269;SDS011;42176;43.240;27.880;2024-02-16T05:07:35;21.23;;;9.47;;
56269;SDS011;42176;43.240;27.880;2024-02-16T05:09:36;22.83;;;10.20;;
56269;SDS011;42176;43.240;27.880;2024-02-16T05:11:37;17.67;;;7.78;;
56269;SDS011;42176;43.240;27.880;2024-02-16T05:13:37;16.57;;;7.07;;
56269;SDS011;42176;43.240;27.880;2024-02-16T05:15:39;17.92;;;8.13;;
56269;SDS011;42176;43.240;27.880;2024-02-16T05:17:40;20.90;;;7.50;;
56269;SDS011;42176;43.240;27.880;2024-02-16T05:19:41;19.67;;;7.80;;
56269;SDS011;42176;43.240;27.880;2024-02-16T05:21:41;11.77;;;5.95;;
56269;SDS011;42176;43.240;27.880;2024-02-16T05:23:42;10.77;;;4.20;;
56269;SDS011;42176;43.240;27.880;2024-02-16T05:25:42;26.30;;;12.32;;
56269;SDS011;42176;43.240;27.880;2024-02-16T05:27:43;28.98;;;13.95;;
56269;SDS011;42176;43.240;27.880;2024-02-16T05:29:44;76.47;;;34.65;;
56269;SDS011;42176;43.240;27.880;2024-02-16T05:31:45;29.47;;;10.33;;
56269;SDS011;42176;43.240;27.880;2024-02-16T05:33:49;19.27;;;9.43;;
56269;SDS011;42176;43.240;27.880;2024-02-16T05:35:51;50.40;;;22.80;;
56269;SDS011;42176;43.240;27.880;2024-02-16T05:37:55;40.05;;;16.98;;
56269;SDS011;42176;43.240;27.880;2024-02-16T05:39:55;45.38;;;22.98;;
56269;SDS011;42176;43.240;27.880;2024-02-16T05:42:08;11.70;;;5.28;;
56269;SDS011;42176;43.240;27.880;2024-02-16T05:44:09;16.80;;;7.55;;
56269;SDS011;42176;43.240;27.880;2024-02-16T05:46:16;15.98;;;8.10;;
56269;SDS011;42176;43.240;27.880;2024-02-16T05:48:17;17.60;;;8.77;;
56269;SDS011;42176;43.240;27.880;2024-02-16T05:50:19;20.73;;;8.40;;
56269;SDS011;42176;43.240;27.880;2024-02-16T05:52:21;15.25;;;6.72;;
56269;SDS011;42176;43.240;27.880;2024-02-16T05:54:23;17.08;;;8.73;;
56269;SDS011;42176;43.240;27.880;2024-02-16T05:56:23;18.33;;;9.18;;
56269;SDS011;42176;43.240;27.880;2024-02-16T05:58:24;15.82;;;8.40;;
56269;SDS011;42176;43.240;27.880;2024-02-16T06:00:25;19.25;;;10.35;;
56269;SDS011;42176;43.240;27.880;2024-02-16T06:02:27;7.85;;;3.58;;
56269;SDS011;42176;43.240;27.880;2024-02-16T06:04:28;15.70;;;6.80;;
56269;SDS011;42176;43.240;27.880;2024-02-16T06:06:28;15.13;;;6.57;;
56269;SDS011;42176;43.240;27.880;2024-02-16T06:08:29;13.52;;;6.68;;
56269;SDS011;42176;43.240;27.880;2024-02-16T06:10:29;10.38;;;5.57;;
56269;SDS011;42176;43.240;27.880;2024-02-16T06:12:30;18.70;;;5.68;;
56269;SDS011;42176;43.240;27.880;2024-02-16T06:14:31;5.05;;;3.53;;
56269;SDS011;42176;43.240;27.880;2024-02-16T06:16:32;7.18;;;3.80;;
56269;SDS011;42176;43.240;27.880;2024-02-16T06:18:33;14.17;;;6.60;;
56269;SDS011;42176;43.240;27.880;2024-02-16T06:20:34;15.70;;;6.05;;
56269;SDS011;42176;43.240;27.880;2024-02-16T06:22:35;20.40;;;9.80;;
56269;SDS011;42176;43.240;27.880;2024-02-16T06:24:36;15.10;;;7.87;;
56269;SDS011;42176;43.240;27.880;2024-02-16T06:26:37;20.03;;;8.70;;
56269;SDS011;42176;43.240;27.880;2024-02-16T06:28:38;9.07;;;5.18;;
56269;SDS011;42176;43.240;27.880;2024-02-16T06:30:38;11.30;;;5.22;;
56269;SDS011;42176;43.240;27.880;2024-02-16T06:32:39;10.02;;;3.60;;
56269;SDS011;42176;43.240;27.880;2024-02-16T06:34:43;16.40;;;6.88;;
56269;SDS011;42176;43.240;27.880;2024-02-16T06:36:45;16.00;;;8.15;;
56269;SDS011;42176;43.240;27.880;2024-02-16T06:38:46;15.87;;;8.07;;
56269;SDS011;42176;43.240;27.880;2024-02-16T06:40:46;15.60;;;8.50;;
56269;SDS011;42176;43.240;27.880;2024-02-16T06:42:47;16.02;;;6.25;;
56269;SDS011;42176;43.240;27.880;2024-02-16T06:44:47;11.70;;;5.65;;
56269;SDS011;42176;43.240;27.880;2024-02-16T06:46:48;15.07;;;6.03;;
56269;SDS011;42176;43.240;27.880;2024-02-16T06:48:49;8.73;;;4.10;;
56269;SDS011;42176;43.240;27.880;2024-02-16T06:50:50;12.47;;;7.70;;
56269;SDS011;42176;43.240;27.880;2024-02-16T06:52:50;15.05;;;8.00;;
56269;SDS011;42176;43.240;27.880;2024-02-16T06:54:51;16.13;;;7.97;;
56269;SDS011;42176;43.240;27.880;2024-02-16T06:56:53;14.18;;;5.53;;
56269;SDS011;42176;43.240;27.880;2024-02-16T06:58:53;9.30;;;4.10;;
56269;SDS011;42176;43.240;27.880;2024-02-16T07:00:54;11.45;;;5.07;;
56269;SDS011;42176;43.240;27.880;2024-02-16T07:02:55;10.07;;;5.10;;
56269;SDS011;42176;43.240;27.880;2024-02-16T07:04:55;13.30;;;7.35;;
56269;SDS011;42176;43.240;27.880;2024-02-16T07:06:57;11.60;;;7.30;;
56269;SDS011;42176;43.240;27.880;2024-02-16T07:08:57;11.80;;;5.22;;
56269;SDS011;42176;43.240;27.880;2024-02-16T07:10:58;12.52;;;5.43;;
56269;SDS011;42176;43.240;27.880;2024-02-16T07:12:59;15.17;;;7.30;;
56269;SDS011;42176;43.240;27.880;2024-02-16T07:15:00;13.80;;;6.20;;
56269;SDS011;42176;43.240;27.880;2024-02-16T07:17:01;7.28;;;3.90;;
56269;SDS011;42176;43.240;27.880;2024-02-16T07:19:01;19.92;;;6.97;;
56269;SDS011;42176;43.240;27.880;2024-02-16T07:21:02;10.18;;;5.75;;
56269;SDS011;42176;43.240;27.880;2024-02-16T07:23:03;11.88;;;6.05;;
56269;SDS011;42176;43.240;27.880;2024-02-16T07:25:04;14.37;;;4.67;;
56269;SDS011;42176;43.240;27.880;2024-02-16T07:27:05;11.07;;;4.95;;
56269;SDS011;42176;43.240;27.880;2024-02-16T07:29:06;12.60;;;4.10;;
56269;SDS011;42176;43.240;27.880;2024-02-16T07:31:07;15.73;;;6.35;;
56269;SDS011;42176;43.240;27.880;2024-02-16T07:33:07;15.70;;;5.55;;
56269;SDS011;42176;43.240;27.880;2024-02-16T07:35:09;15.60;;;7.70;;
56269;SDS011;42176;43.240;27.880;2024-02-16T07:39:10;20.55;;;8.38;;
56269;SDS011;42176;43.240;27.880;2024-02-16T07:41:12;8.82;;;3.33;;
56269;SDS011;42176;43.240;27.880;2024-02-16T07:43:12;19.48;;;9.20;;
56269;SDS011;42176;43.240;27.880;2024-02-16T07:45:13;34.67;;;13.60;;
56269;SDS011;42176;43.240;27.880;2024-02-16T07:47:14;11.23;;;5.05;;
56269;SDS011;42176;43.240;27.880;2024-02-16T07:49:15;19.15;;;6.70;;
56269;SDS011;42176;43.240;27.880;2024-02-16T07:51:16;8.57;;;5.33;;
56269;SDS011;42176;43.240;27.880;2024-02-16T07:53:17;7.32;;;3.33;;
56269;SDS011;42176;43.240;27.880;2024-02-16T07:55:17;8.90;;;4.30;;
56269;SDS011;42176;43.240;27.880;2024-02-16T07:57:18;5.57;;;2.88;;
56269;SDS011;42176;43.240;27.880;2024-02-16T07:59:19;9.55;;;5.10;;
56269;SDS011;42176;43.240;27.880;2024-02-16T08:01:19;12.88;;;4.60;;
56269;SDS011;42176;43.240;27.880;2024-02-16T08:03:20;8.02;;;4.03;;
56269;SDS011;42176;43.240;27.880;2024-02-16T08:05:20;10.60;;;4.35;;
56269;SDS011;42176;43.240;27.880;2024-02-16T08:07:22;8.18;;;5.05;;
56269;SDS011;42176;43.240;27.880;2024-02-16T08:09:23;10.33;;;5.13;;
56269;SDS011;42176;43.240;27.880;2024-02-16T08:11:23;8.82;;;4.85;;
56269;SDS011;42176;43.240;27.880;2024-02-16T08:13:24;11.40;;;4.90;;
56269;SDS011;42176;43.240;27.880;2024-02-16T08:15:25;10.60;;;5.72;;
56269;SDS011;42176;43.240;27.880;2024-02-16T08:17:26;7.63;;;3.58;;
56269;SDS011;42176;43.240;27.880;2024-02-16T08:19:36;6.35;;;3.13;;
56269;SDS011;42176;43.240;27.880;2024-02-16T08:21:37;11.63;;;5.85;;
56269;SDS011;42176;43.240;27.880;2024-02-16T08:23:37;14.23;;;6.10;;
56269;SDS011;42176;43.240;27.880;2024-02-16T08:25:38;8.85;;;5.45;;
56269;SDS011;42176;43.240;27.880;2024-02-16T08:27:38;11.13;;;6.38;;
56269;SDS011;42176;43.240;27.880;2024-02-16T08:29:39;7.57;;;3.92;;
56269;SDS011;42176;43.240;27.880;2024-02-16T08:31:40;13.43;;;5.75;;
56269;SDS011;42176;43.240;27.880;2024-02-16T08:33:40;15.50;;;6.70;;
56269;SDS011;42176;43.240;27.880;2024-02-16T08:35:41;12.93;;;7.05;;
56269;SDS011;42176;43.240;27.880;2024-02-16T08:37:42;12.77;;;6.75;;
56269;SDS011;42176;43.240;27.880;2024-02-16T08:39:42;13.57;;;6.53;;
56269;SDS011;42176;43.240;27.880;2024-02-16T08:41:43;9.52;;;3.92;;
56269;SDS011;42176;43.240;27.880;2024-02-16T08:43:44;11.07;;;4.45;;
56269;SDS011;42176;43.240;27.880;2024-02-16T08:45:44;11.10;;;4.68;;
56269;SDS011;42176;43.240;27.880;2024-02-16T08:47:45;19.53;;;8.90;;
56269;SDS011;42176;43.240;27.880;2024-02-16T08:49:46;22.10;;;9.95;;
56269;SDS011;42176;43.240;27.880;2024-02-16T08:51:47;13.13;;;5.50;;
56269;SDS011;42176;43.240;27.880;2024-02-16T08:53:48;19.42;;;7.55;;
56269;SDS011;42176;43.240;27.880;2024-02-16T08:55:48;21.23;;;7.90;;
56269;SDS011;42176;43.240;27.880;2024-02-16T08:57:49;18.75;;;7.18;;
56269;SDS011;42176;43.240;27.880;2024-02-16T08:59:49;20.35;;;10.25;;
56269;SDS011;42176;43.240;27.880;2024-02-16T09:01:50;22.70;;;11.23;;
56269;SDS011;42176;43.240;27.880;2024-02-16T09:03:51;19.50;;;10.10;;
56269;SDS011;42176;43.240;27.880;2024-02-16T09:05:54;16.73;;;7.65;;
56269;SDS011;42176;43.240;27.880;2024-02-16T09:07:54;10.50;;;5.68;;
56269;SDS011;42176;43.240;27.880;2024-02-16T09:09:55;18.08;;;10.10;;
56269;SDS011;42176;43.240;27.880;2024-02-16T09:11:56;20.60;;;9.57;;
56269;SDS011;42176;43.240;27.880;2024-02-16T09:13:57;18.85;;;9.93;;
56269;SDS011;42176;43.240;27.880;2024-02-16T09:15:58;11.50;;;5.87;;
56269;SDS011;42176;43.240;27.880;2024-02-16T09:17:59;17.90;;;8.00;;
56269;SDS011;42176;43.240;27.880;2024-02-16T09:20:00;18.80;;;7.40;;
56269;SDS011;42176;43.240;27.880;2024-02-16T09:22:01;20.95;;;10.43;;
56269;SDS011;42176;43.240;27.880;2024-02-16T09:24:03;26.38;;;11.25;;
56269;SDS011;42176;43.240;27.880;2024-02-16T09:26:04;24.90;;;10.85;;
56269;SDS011;42176;43.240;27.880;2024-02-16T09:28:08;16.52;;;8.85;;
56269;SDS011;42176;43.240;27.880;2024-02-16T09:30:09;17.67;;;9.45;;
56269;SDS011;42176;43.240;27.880;2024-02-16T09:32:11;22.27;;;11.10;;
56269;SDS011;42176;43.240;27.880;2024-02-16T09:34:11;25.38;;;11.40;;
56269;SDS011;42176;43.240;27.880;2024-02-16T09:36:13;24.13;;;11.10;;
56269;SDS011;42176;43.240;27.880;2024-02-16T09:38:13;22.05;;;8.00;;
56269;SDS011;42176;43.240;27.880;2024-02-16T09:40:14;20.55;;;8.13;;
56269;SDS011;42176;43.240;27.880;2024-02-16T09:42:15;15.23;;;6.55;;
56269;SDS011;42176;43.240;27.880;2024-02-16T09:44:16;23.92;;;11.45;;
56269;SDS011;42176;43.240;27.880;2024-02-16T09:46:17;19.73;;;8.68;;
56269;SDS011;42176;43.240;27.880;2024-02-16T09:48:19;30.55;;;12.40;;
56269;SDS011;42176;43.240;27.880;2024-02-16T09:50:21;28.52;;;12.95;;
56269;SDS011;42176;43.240;27.880;2024-02-16T09:52:21;27.80;;;8.60;;
56269;SDS011;42176;43.240;27.880;2024-02-16T09:54:23;24.33;;;8.40;;
56269;SDS011;42176;43.240;27.880;2024-02-16T09:56:25;20.75;;;9.02;;
56269;SDS011;42176;43.240;27.880;2024-02-16T09:58:25;23.87;;;10.30;;
56269;SDS011;42176;43.240;27.880;2024-02-16T10:00:26;22.73;;;11.20;;
56269;SDS011;42176;43.240;27.880;2024-02-16T10:02:27;26.23;;;11.32;;
56269;SDS011;42176;43.240;27.880;2024-02-16T10:04:28;22.95;;;10.13;;
56269;SDS011;42176;43.240;27.880;2024-02-16T10:06:29;23.07;;;7.47;;
56269;SDS011;42176;43.240;27.880;2024-02-16T10:08:29;22.10;;;9.38;;
56269;SDS011;42176;43.240;27.880;2024-02-16T10:10:30;33.75;;;12.88;;
56269;SDS011;42176;43.240;27.880;2024-02-16T10:12:31;21.48;;;10.77;;
56269;SDS011;42176;43.240;27.880;2024-02-16T10:14:32;27.27;;;12.63;;
56269;SDS011;42176;43.240;27.880;2024-02-16T10:16:33;20.38;;;7.90;;
56269;SDS011;42176;43.240;27.880;2024-02-16T10:18:33;21.33;;;8.50;;
56269;SDS011;42176;43.240;27.880;2024-02-16T10:20:35;22.30;;;9.32;;
56269;SDS011;42176;43.240;27.880;2024-02-16T10:22:36;26.15;;;12.63;;
56269;SDS011;42176;43.240;27.880;2024-02-16T10:24:36;31.88;;;13.00;;
56269;SDS011;42176;43.240;27.880;2024-02-16T10:26:38;29.08;;;13.27;;
56269;SDS011;42176;43.240;27.880;2024-02-16T10:28:39;19.63;;;8.35;;
56269;SDS011;42176;43.240;27.880;2024-02-16T10:30:42;25.70;;;9.50;;
56269;SDS011;42176;43.240;27.880;2024-02-16T10:32:44;24.92;;;9.88;;
56269;SDS011;42176;43.240;27.880;2024-02-16T10:34:45;29.33;;;11.03;;
56269;SDS011;42176;43.240;27.880;2024-02-16T10:38:48;22.70;;;8.32;;
56269;SDS011;42176;43.240;27.880;2024-02-16T10:40:50;27.27;;;11.23;;
56269;SDS011;42176;43.240;27.880;2024-02-16T10:42:51;18.95;;;8.98;;
56269;SDS011;42176;43.240;27.880;2024-02-16T10:44:52;29.80;;;13.67;;
56269;SDS011;42176;43.240;27.880;2024-02-16T10:46:54;32.45;;;14.02;;
56269;SDS011;42176;43.240;27.880;2024-02-16T10:48:58;35.58;;;17.05;;
56269;SDS011;42176;43.240;27.880;2024-02-16T10:50:59;7.72;;;4.88;;
56269;SDS011;42176;43.240;27.880;2024-02-16T10:53:03;31.92;;;10.70;;
56269;SDS011;42176;43.240;27.880;2024-02-16T10:55:09;36.00;;;12.10;;
56269;SDS011;42176;43.240;27.880;2024-02-16T10:57:11;39.80;;;16.80;;
56269;SDS011;42176;43.240;27.880;2024-02-16T10:59:12;28.10;;;13.93;;
56269;SDS011;42176;43.240;27.880;2024-02-16T11:01:15;39.45;;;17.88;;
56269;SDS011;42176;43.240;27.880;2024-02-16T11:03:16;24.65;;;11.65;;
56269;SDS011;42176;43.240;27.880;2024-02-16T11:05:31;28.30;;;11.50;;
56269;SDS011;42176;43.240;27.880;2024-02-16T11:07:32;37.30;;;16.75;;
56269;SDS011;42176;43.240;27.880;2024-02-16T11:09:36;33.15;;;15.05;;
56269;SDS011;42176;43.240;27.880;2024-02-16T11:11:36;36.63;;;17.83;;
56269;SDS011;42176;43.240;27.880;2024-02-16T11:13:37;28.85;;;10.93;;
56269;SDS011;42176;43.240;27.880;2024-02-16T11:15:39;21.50;;;9.00;;
56269;SDS011;42176;43.240;27.880;2024-02-16T11:17:40;27.10;;;11.95;;
56269;SDS011;42176;43.240;27.880;2024-02-16T11:19:41;35.13;;;15.50;;
56269;SDS011;42176;43.240;27.880;2024-02-16T11:24:03;36.53;;;17.77;;
56269;SDS011;42176;43.240;27.880;2024-02-16T11:26:11;28.05;;;9.15;;
56269;SDS011;42176;43.240;27.880;2024-02-16T11:28:12;35.03;;;12.30;;
56269;SDS011;42176;43.240;27.880;2024-02-16T11:30:14;41.65;;;14.75;;
56269;SDS011;42176;43.240;27.880;2024-02-16T11:32:14;36.10;;;13.60;;
56269;SDS011;42176;43.240;27.880;2024-02-16T11:34:22;42.60;;;16.95;;
56269;SDS011;42176;43.240;27.880;2024-02-16T11:36:23;42.67;;;19.85;;
56269;SDS011;42176;43.240;27.880;2024-02-16T11:38:25;50.72;;;22.13;;
56269;SDS011;42176;43.240;27.880;2024-02-16T11:40:26;49.08;;;20.50;;
56269;SDS011;42176;43.240;27.880;2024-02-16T11:42:26;28.95;;;12.60;;
56269;SDS011;42176;43.240;27.880;2024-02-16T11:44:28;44.78;;;13.75;;
56269;SDS011;42176;43.240;27.880;2024-02-16T11:46:29;37.58;;;18.48;;
56269;SDS011;42176;43.240;27.880;2024-02-16T11:48:30;42.67;;;20.35;;
56269;SDS011;42176;43.240;27.880;2024-02-16T11:50:32;46.05;;;19.20;;
56269;SDS011;42176;43.240;27.880;2024-02-16T11:52:32;30.48;;;12.18;;
56269;SDS011;42176;43.240;27.880;2024-02-16T11:54:34;29.65;;;13.55;;